Time;durP1;ratioP1;P1;durP2;ratioP2;P2;SDS_P1;SDS_P2;PMS_P1;PMS_P2;Temp;Humidity;BMP_temperature;BMP_pressure;BME280_temperature;BME280_humidity;BME280_pressure;Samples;Min_cycle;Max_cycle;Signal;HPM_P1;HPM_P2
2021/01/11 00:02:23;;;;;;;27.17;9.73;;;1.30;99.90;;;2.04;81.30;101658.81;5058396;28;20208;-76
2021/01/11 00:04:49;;;;;;;28.50;10.10;;;1.40;99.90;;;2.04;81.21;101658.81;5051868;28;20200;-75
2021/01/11 00:07:15;;;;;;;29.87;10.70;;;1.40;99.90;;;2.03;81.32;101659.69;5053393;28;20204;-76
2021/01/11 00:09:42;;;;;;;30.10;9.77;;;1.40;99.90;;;2.08;81.45;101650.28;5053005;28;20185;-75
2021/01/11 00:12:08;;;;;;;29.73;10.37;;;1.40;99.90;;;2.14;81.22;101649.50;5065680;28;20314;-76
2021/01/11 00:14:35;;;;;;;26.63;9.47;;;1.50;99.90;;;2.14;80.74;101645.16;5067881;28;20195;-76
2021/01/11 00:17:02;;;;;;;25.63;10.07;;;1.50;99.90;;;2.07;80.70;101635.66;5034915;28;20197;-76
2021/01/11 00:19:28;;;;;;;31.20;10.10;;;1.40;99.90;;;2.04;80.71;101643.34;5052448;28;20553;-77
2021/01/11 00:21:54;;;;;;;26.80;9.77;;;1.40;99.90;;;2.04;80.77;101645.91;5051797;28;20192;-76
2021/01/11 00:24:21;;;;;;;25.77;9.23;;;1.40;99.90;;;2.02;80.41;101650.22;5053251;28;20221;-77
2021/01/11 00:26:51;;;;;;;26.77;8.73;;;1.40;99.90;;;1.98;80.56;101651.00;5062059;28;20258;-76
2021/01/11 00:29:18;;;;;;;28.00;9.30;;;1.30;99.90;;;1.95;80.34;101650.97;5051539;28;20279;-76
2021/01/11 00:31:44;;;;;;;24.97;8.63;;;1.30;99.90;;;1.92;80.01;101643.22;5054319;28;20538;-75
2021/01/11 00:34:12;;;;;;;26.37;9.43;;;1.30;99.90;;;1.92;80.37;101643.22;5049940;28;20193;-76
2021/01/11 00:36:38;;;;;;;24.60;9.47;;;1.30;99.90;;;1.93;80.35;101652.66;5049145;28;20295;-76
2021/01/11 00:39:06;;;;;;;27.67;9.20;;;1.30;99.90;;;1.93;80.52;101644.94;5068074;28;20216;-76
2021/01/11 00:41:32;;;;;;;25.83;9.00;;;1.30;99.90;;;1.96;80.43;101650.13;5067677;28;20199;-77
2021/01/11 00:43:59;;;;;;;25.83;9.17;;;1.30;99.90;;;2.02;80.55;101650.22;5052502;28;20227;-76
2021/01/11 00:46:27;;;;;;;25.97;9.10;;;1.30;99.90;;;2.08;80.50;101642.53;5050015;28;20239;-76
2021/01/11 00:48:56;;;;;;;24.90;8.77;;;1.40;99.90;;;2.13;80.27;101645.16;5068632;28;20230;-77
2021/01/11 00:51:25;;;;;;;24.17;8.50;;;1.50;99.90;;;2.14;80.20;101655.50;5049644;28;20219;-77
2021/01/11 00:53:57;;;;;;;25.07;8.97;;;1.50;99.90;;;2.16;79.93;101652.97;5049636;28;20231;-76
2021/01/11 00:56:24;;;;;;;22.73;7.73;;;1.50;99.90;;;2.15;80.02;101659.84;5051639;28;20253;-76
2021/01/11 00:58:50;;;;;;;22.03;8.43;;;1.50;99.90;;;2.14;79.82;101649.50;5052869;28;20218;-76
2021/01/11 01:01:20;;;;;;;23.97;8.57;;;1.50;99.90;;;2.16;79.78;101648.66;5051609;28;20317;-76
2021/01/11 01:03:51;;;;;;;24.30;8.27;;;1.50;99.90;;;2.21;79.84;101641.81;5067372;28;20216;-76
2021/01/11 01:06:18;;;;;;;23.10;8.97;;;1.60;99.90;;;2.27;79.73;101647.06;5048704;28;20204;-76
2021/01/11 01:08:45;;;;;;;22.73;8.30;;;1.70;99.90;;;2.28;79.60;101643.63;5058948;28;20665;-75
2021/01/11 01:11:12;;;;;;;22.07;8.50;;;1.70;99.90;;;2.29;79.57;101640.19;5063148;28;20192;-76
2021/01/11 01:13:38;;;;;;;21.63;8.67;;;1.70;99.90;;;2.33;79.45;101646.25;5050152;28;20664;-76
2021/01/11 01:16:05;;;;;;;20.53;8.07;;;1.70;99.90;;;2.34;79.22;101648.84;5067273;28;20196;-76
2021/01/11 01:18:32;;;;;;;23.37;8.17;;;1.70;99.90;;;2.33;78.85;101647.13;5069570;28;20231;-77
2021/01/11 01:20:59;;;;;;;20.70;7.70;;;1.80;99.90;;;2.33;78.99;101641.09;5064473;28;20189;-76
2021/01/11 01:23:25;;;;;;;24.23;8.37;;;1.80;99.90;;;2.33;78.59;101634.22;5049652;28;20227;-76
2021/01/11 01:25:52;;;;;;;23.50;7.93;;;1.70;99.90;;;2.33;78.59;101636.78;5066962;28;20193;-76
2021/01/11 01:28:19;;;;;;;24.50;7.90;;;1.80;99.90;;;2.36;78.62;101633.41;5049922;28;20197;-75
2021/01/11 01:30:45;;;;;;;20.10;7.57;;;1.80;99.90;;;2.35;78.34;101640.25;5068681;28;20188;-77
2021/01/11 01:33:11;;;;;;;20.40;7.43;;;1.80;99.90;;;2.31;78.33;101635.91;5051248;28;20281;-76
2021/01/11 01:35:37;;;;;;;20.30;6.97;;;1.80;99.90;;;2.30;78.33;101641.94;5061044;28;20185;-76
2021/01/11 01:38:04;;;;;;;18.67;7.33;;;1.80;99.90;;;2.31;78.28;101628.16;5048789;28;20261;-74
2021/01/11 01:40:30;;;;;;;18.73;7.13;;;1.80;99.90;;;2.37;78.34;101627.38;5060790;28;20795;-75
2021/01/11 01:42:57;;;;;;;19.87;7.13;;;1.80;99.90;;;2.39;78.20;101618.78;5049768;28;20544;-75
2021/01/11 01:45:23;;;;;;;23.73;7.77;;;1.80;99.90;;;2.37;77.95;101612.75;5048741;28;20196;-75
2021/01/11 01:47:49;;;;;;;20.33;7.57;;;1.80;99.90;;;2.39;78.02;101630.84;5068354;28;20259;-76
2021/01/11 01:50:16;;;;;;;21.37;7.57;;;1.80;99.90;;;2.41;78.39;101624.81;5056919;28;20196;-77
2021/01/11 01:52:44;;;;;;;20.33;7.50;;;1.90;99.90;;;2.40;78.01;101620.53;5050868;28;20586;-76
2021/01/11 01:55:12;;;;;;;18.87;7.47;;;1.90;99.90;;;2.39;77.85;101616.19;5051015;28;20200;-76
2021/01/11 01:57:38;;;;;;;21.73;7.70;;;1.80;99.90;;;2.41;77.97;101623.97;5062020;28;20704;-77
2021/01/11 02:00:11;;;;;;;21.37;7.10;;;1.80;99.90;;;2.41;77.61;101622.25;5043133;28;20265;-77
2021/01/11 02:02:40;;;;;;;18.83;6.93;;;1.80;99.90;;;2.45;77.97;101616.28;5063254;28;20234;-76
2021/01/11 02:05:08;;;;;;;20.93;7.53;;;1.90;99.90;;;2.50;77.69;101624.94;5066709;28;20207;-75
2021/01/11 02:07:48;;;;;;;18.63;7.30;;;1.90;99.90;;;2.49;77.69;101619.75;5068643;28;20202;-76
2021/01/11 02:10:26;;;;;;;18.20;6.43;;;1.90;99.90;;;2.47;77.74;101614.56;5065291;28;20188;-75
2021/01/11 02:13:15;;;;;;;21.93;7.43;;;1.90;99.90;;;2.47;77.74;101614.56;5068030;28;20211;-76
2021/01/11 02:15:55;;;;;;;18.23;6.37;;;1.90;99.90;;;2.45;77.92;101611.09;5041637;28;20184;-76
2021/01/11 02:18:36;;;;;;;18.23;6.60;;;1.90;99.90;;;2.43;77.79;101607.63;5065716;28;20219;-76
2021/01/11 02:21:19;;;;;;;20.70;7.77;;;1.90;99.90;;;2.45;77.49;101603.38;5049811;28;20204;-76
2021/01/11 02:24:56;;;;;;;20.63;7.20;;;1.90;99.90;;;2.48;77.88;101605.97;5046920;28;20261;-76
2021/01/11 02:27:36;;;;;;;15.73;5.87;;;1.90;99.90;;;2.48;78.21;101595.63;5064659;28;20223;-76
2021/01/11 02:30:28;;;;;;;19.13;6.57;;;1.90;99.90;;;2.53;78.22;101599.13;5050277;28;20204;-73
2021/01/11 02:33:00;;;;;;;19.17;6.30;;;2.00;99.90;;;2.56;78.50;101593.97;5066992;28;20290;-75
2021/01/11 02:35:30;;;;;;;16.33;6.87;;;2.00;99.90;;;2.58;78.38;101593.16;5067352;28;20188;-75
2021/01/11 02:37:58;;;;;;;16.13;6.10;;;2.00;99.90;;;2.54;78.20;101594.84;5067387;28;20216;-76
2021/01/11 02:40:25;;;;;;;18.97;6.37;;;2.00;99.90;;;2.56;78.41;101593.13;5048668;28;20291;-77
2021/01/11 02:42:51;;;;;;;17.53;6.43;;;2.00;99.90;;;2.60;78.40;101588.88;5046910;28;20219;-75
2021/01/11 02:45:18;;;;;;;16.97;6.70;;;2.00;99.90;;;2.60;78.46;101599.22;5066541;28;20203;-77
2021/01/11 02:48:03;;;;;;;16.80;6.13;;;2.10;99.90;;;2.63;78.42;101594.06;5054390;28;20192;-75
2021/01/11 02:50:39;;;;;;;18.07;6.33;;;2.10;99.90;;;2.66;78.43;101583.75;5067137;28;20554;-76
2021/01/11 02:53:09;;;;;;;19.63;6.30;;;2.10;99.90;;;2.67;78.19;101590.63;5052749;28;20227;-76
2021/01/11 02:55:48;;;;;;;16.20;6.47;;;2.10;99.90;;;2.66;78.27;101586.31;5062825;28;20214;-76
2021/01/11 02:58:32;;;;;;;19.80;6.40;;;2.10;99.90;;;2.71;78.16;101579.47;5051176;28;20779;-77
2021/01/11 03:01:02;;;;;;;18.43;5.90;;;2.10;99.90;;;2.72;78.08;101576.03;5054206;28;20196;-72
2021/01/11 03:03:32;;;;;;;16.20;5.77;;;2.10;99.90;;;2.69;77.80;101569.16;5071289;28;20567;-76
2021/01/11 03:05:58;;;;;;;18.00;6.67;;;2.10;99.90;;;2.71;78.31;101582.06;5049546;28;20193;-76
2021/01/11 03:08:24;;;;;;;16.77;5.60;;;2.10;99.90;;;2.71;78.06;101582.94;5052688;28;20196;-77
2021/01/11 03:10:51;;;;;;;17.67;5.87;;;2.10;99.90;;;2.72;78.10;101583.78;5050215;28;20196;-77
2021/01/11 03:13:18;;;;;;;16.43;5.87;;;2.10;99.90;;;2.71;78.08;101585.53;5051925;28;20583;-76
2021/01/11 03:15:45;;;;;;;18.20;6.43;;;2.10;99.90;;;2.73;77.84;101580.38;5070999;28;20258;-76
2021/01/11 03:18:11;;;;;;;17.37;6.17;;;2.20;99.90;;;2.68;78.07;101577.72;5054029;28;20807;-78
2021/01/11 03:20:38;;;;;;;19.20;6.97;;;2.10;99.90;;;2.65;78.02;101582.03;5062891;28;20238;-76
2021/01/11 03:23:05;;;;;;;15.10;5.70;;;2.10;99.90;;;2.67;78.01;101580.28;5055333;28;20211;-75
2021/01/11 03:25:31;;;;;;;16.17;6.03;;;2.10;99.90;;;2.62;78.16;101581.97;5073751;28;20185;-75
2021/01/11 03:27:57;;;;;;;15.27;5.73;;;2.00;99.90;;;2.56;78.40;101580.22;5058442;28;20267;-76
2021/01/11 03:30:23;;;;;;;17.07;6.43;;;2.00;99.90;;;2.53;78.45;101575.00;5054183;28;20192;-76
2021/01/11 03:32:51;;;;;;;16.17;6.17;;;2.00;99.90;;;2.47;78.81;101574.97;5065303;28;20584;-75
2021/01/11 03:35:17;;;;;;;16.53;6.10;;;1.90;99.90;;;2.40;79.51;101574.06;5067982;28;20299;-76
2021/01/11 03:37:44;;;;;;;16.70;6.17;;;1.80;99.90;;;2.33;80.26;101569.69;5069282;28;20205;-76
2021/01/11 03:40:12;;;;;;;21.30;7.27;;;1.80;99.90;;;2.27;80.87;101568.75;5070009;28;20669;-75
2021/01/11 03:42:39;;;;;;;18.13;6.60;;;1.70;99.90;;;2.24;81.37;101572.16;5041336;28;20239;-76
2021/01/11 03:45:08;;;;;;;15.73;5.83;;;1.60;99.90;;;2.23;82.15;101567.84;5053821;28;20226;-75
2021/01/11 03:47:35;;;;;;;18.23;6.40;;;1.50;99.90;;;2.19;82.58;101573.81;5051891;28;20246;-75
2021/01/11 03:50:02;;;;;;;18.50;6.93;;;1.50;99.90;;;2.18;83.00;101571.22;5068468;28;20188;-76
2021/01/11 03:52:29;;;;;;;16.67;6.97;;;1.50;99.90;;;2.12;83.04;101559.16;5068615;28;20223;-75
2021/01/11 03:54:56;;;;;;;16.87;6.47;;;1.40;99.90;;;2.09;83.16;101563.41;5069477;28;20266;-75
2021/01/11 03:57:22;;;;;;;17.77;6.27;;;1.40;99.90;;;2.05;83.32;101554.78;5050161;28;20219;-75
2021/01/11 03:59:48;;;;;;;18.80;6.77;;;1.40;99.90;;;2.04;83.64;101558.19;5070898;28;20195;-76
2021/01/11 04:02:14;;;;;;;18.73;6.50;;;1.40;99.90;;;2.08;84.05;101552.22;5051035;28;20217;-75
2021/01/11 04:04:40;;;;;;;16.63;6.13;;;1.40;99.90;;;2.11;83.75;101551.41;5070982;28;20188;-75
2021/01/11 04:07:07;;;;;;;15.87;5.93;;;1.40;99.90;;;2.13;83.92;101557.41;5069591;28;20192;-76
2021/01/11 04:09:33;;;;;;;18.40;6.70;;;1.50;99.90;;;2.13;84.10;101555.72;5051494;28;20203;-76
2021/01/11 04:12:00;;;;;;;16.97;6.10;;;1.50;99.90;;;2.17;84.28;101554.03;5052010;28;20192;-76
2021/01/11 04:14:26;;;;;;;20.57;7.50;;;1.50;99.90;;;2.16;84.45;101555.72;5067709;28;20203;-76
2021/01/11 04:16:53;;;;;;;18.03;8.07;;;1.50;99.90;;;2.15;84.36;101546.28;5053214;28;20515;-76
2021/01/11 04:19:19;;;;;;;16.23;6.40;;;1.50;99.90;;;2.17;84.50;101549.75;5069413;28;20212;-77
2021/01/11 04:21:45;;;;;;;19.00;6.80;;;1.60;99.90;;;2.20;84.61;101547.19;5069133;28;20192;-77
2021/01/11 04:24:12;;;;;;;19.60;7.10;;;1.50;99.90;;;2.21;84.61;101545.47;5050447;28;20192;-76
2021/01/11 04:26:38;;;;;;;21.93;7.47;;;1.60;99.90;;;2.21;84.63;101543.75;5048117;28;20216;-76
2021/01/11 04:29:05;;;;;;;18.53;6.77;;;1.60;99.90;;;2.20;84.65;101543.72;5064982;28;20192;-76
2021/01/11 04:31:32;;;;;;;20.00;6.70;;;1.60;99.90;;;2.20;84.83;101539.44;5070475;28;20208;-77
2021/01/11 04:33:58;;;;;;;17.20;6.30;;;1.60;99.90;;;2.22;84.64;101535.16;5066813;28;20306;-77
2021/01/11 04:36:24;;;;;;;17.03;5.90;;;1.60;99.90;;;2.24;84.90;101537.75;5065849;28;20267;-77
2021/01/11 04:38:50;;;;;;;18.23;6.77;;;1.60;99.90;;;2.24;84.43;101541.19;5067759;28;20207;-76
2021/01/11 04:41:20;;;;;;;16.33;6.70;;;1.60;99.90;;;2.22;84.67;101532.59;5047036;28;20664;-75
2021/01/11 04:43:49;;;;;;;19.47;6.57;;;1.60;99.90;;;2.24;84.92;101532.59;5049636;28;20216;-77
2021/01/11 04:46:17;;;;;;;18.17;6.53;;;1.60;99.90;;;2.26;85.13;101529.16;5068052;28;20271;-75
2021/01/11 04:48:43;;;;;;;20.37;7.03;;;1.60;99.90;;;2.32;84.77;101524.06;5051591;28;20604;-75
2021/01/11 04:51:10;;;;;;;19.03;7.03;;;1.70;99.90;;;2.36;84.98;101527.56;5065781;28;20196;-77
2021/01/11 04:53:41;;;;;;;18.20;6.50;;;1.70;99.90;;;2.36;84.67;101524.97;5051090;28;20838;-76
2021/01/11 04:56:11;;;;;;;16.07;6.30;;;1.70;99.90;;;2.35;84.61;101506.03;5065905;28;20195;-75
2021/01/11 04:58:55;;;;;;;16.43;6.37;;;1.70;99.90;;;2.35;84.86;101516.34;5048899;28;20278;-76
2021/01/11 05:01:26;;;;;;;18.87;7.13;;;1.70;99.90;;;2.32;84.85;101516.31;5051008;28;21010;-76
2021/01/11 05:03:58;;;;;;;17.13;6.60;;;1.70;99.90;;;2.34;84.81;101521.50;5047537;28;20294;-77
2021/01/11 05:06:25;;;;;;;18.30;6.73;;;1.70;99.90;;;2.32;84.82;101512.88;5068525;28;20280;-75
2021/01/11 05:08:51;;;;;;;19.80;7.13;;;1.70;99.90;;;2.33;84.91;101514.59;5064944;28;20192;-75
2021/01/11 05:11:18;;;;;;;17.27;6.50;;;1.70;99.90;;;2.31;84.82;101511.16;5066783;28;20192;-76
2021/01/11 05:13:44;;;;;;;15.87;6.37;;;1.70;99.90;;;2.32;84.83;101516.31;5066154;28;20758;-76
2021/01/11 05:16:13;;;;;;;18.37;6.40;;;1.80;99.90;;;2.36;85.17;101512.91;5054755;28;20196;-76
2021/01/11 05:18:41;;;;;;;19.63;7.43;;;1.80;99.90;;;2.38;84.92;101516.38;5064177;28;20211;-76
2021/01/11 05:21:08;;;;;;;18.47;6.70;;;1.80;99.90;;;2.40;84.87;101504.34;5047187;28;20562;-76
2021/01/11 05:23:37;;;;;;;17.03;6.57;;;1.80;99.90;;;2.38;85.07;101508.63;5069460;28;20212;-77
2021/01/11 05:26:15;;;;;;;18.47;7.03;;;1.80;99.90;;;2.34;84.82;101499.09;5051052;28;20196;-75
2021/01/11 05:28:42;;;;;;;18.63;6.83;;;1.80;99.90;;;2.36;85.37;101502.56;5051097;28;20206;-77
2021/01/11 05:31:09;;;;;;;20.00;7.83;;;1.80;99.90;;;2.34;85.07;101504.28;5065430;28;20687;-76
2021/01/11 05:33:35;;;;;;;20.30;6.97;;;1.80;99.90;;;2.35;85.20;101510.31;5069501;28;20270;-75
2021/01/11 05:36:06;;;;;;;17.43;6.87;;;1.80;99.90;;;2.40;85.19;101494.00;5050467;28;20214;-75
2021/01/11 05:38:35;;;;;;;19.43;7.10;;;1.90;99.90;;;2.40;85.21;101499.19;5050098;28;20232;-76
2021/01/11 05:41:16;;;;;;;18.87;6.13;;;1.90;99.90;;;2.34;85.03;101499.09;5045576;28;20791;-75
2021/01/11 05:43:43;;;;;;;19.90;6.90;;;1.90;99.90;;;2.31;85.05;101493.94;5047082;28;20688;-73
2021/01/11 05:46:24;;;;;;;18.07;6.33;;;1.90;99.90;;;2.30;85.28;101497.38;5067582;28;20196;-75
2021/01/11 05:48:59;;;;;;;20.00;7.47;;;1.80;99.90;;;2.29;85.32;101498.19;5067627;28;20586;-76
2021/01/11 05:51:27;;;;;;;17.33;6.47;;;1.80;99.90;;;2.29;85.47;101500.78;5054552;28;20660;-76
2021/01/11 05:53:54;;;;;;;20.07;6.63;;;1.80;99.90;;;2.31;85.53;101501.66;5063388;28;20208;-77
2021/01/11 05:56:20;;;;;;;19.47;7.10;;;1.80;99.90;;;2.38;85.40;101503.47;5066001;28;20200;-77
2021/01/11 05:59:06;;;;;;;19.23;7.27;;;1.80;99.90;;;2.44;85.27;101500.06;5050211;28;20227;-76
2021/01/11 06:01:35;;;;;;;17.07;7.10;;;1.90;99.90;;;2.46;85.25;101496.63;5050613;28;21080;-76
2021/01/11 06:04:01;;;;;;;16.97;6.70;;;1.90;99.90;;;2.49;85.46;101499.22;5050762;28;20226;-76
2021/01/11 06:06:28;;;;;;;20.23;7.40;;;2.00;99.90;;;2.50;85.16;101495.81;5057511;28;20210;-76
2021/01/11 06:08:55;;;;;;;18.03;6.97;;;2.00;99.90;;;2.51;85.20;101494.09;5068680;28;20664;-76
2021/01/11 06:11:24;;;;;;;17.40;7.40;;;2.00;99.90;;;2.48;85.23;101500.09;5046854;28;20211;-76
2021/01/11 06:13:52;;;;;;;17.70;6.97;;;2.00;99.90;;;2.46;85.10;101494.03;5068943;28;20757;-77
2021/01/11 06:16:21;;;;;;;19.67;7.30;;;2.00;99.90;;;2.45;85.01;101502.66;5049828;28;20196;-76
2021/01/11 06:18:49;;;;;;;17.47;7.03;;;2.00;99.90;;;2.43;84.78;101494.03;5068069;28;20207;-76
2021/01/11 06:21:16;;;;;;;19.10;6.83;;;1.90;99.90;;;2.41;85.42;101497.47;5068356;28;20196;-75
2021/01/11 06:23:44;;;;;;;17.40;7.13;;;1.90;99.90;;;2.40;85.03;101493.13;5050432;28;20593;-77
2021/01/11 06:26:30;;;;;;;21.00;6.80;;;1.90;99.90;;;2.39;85.07;101496.59;5050183;28;20195;-76
2021/01/11 06:28:58;;;;;;;17.27;6.77;;;1.90;99.90;;;2.40;84.96;101488.84;5049878;28;20196;-76
2021/01/11 06:31:31;;;;;;;20.47;7.20;;;1.90;99.90;;;2.41;85.04;101495.72;5065353;28;20196;-76
2021/01/11 06:33:59;;;;;;;18.10;6.47;;;1.90;99.90;;;2.42;84.59;101492.31;5068184;28;20235;-76
2021/01/11 06:36:29;;;;;;;18.40;7.57;;;1.90;99.90;;;2.41;84.38;101495.72;5047282;28;20199;-76
2021/01/11 06:39:05;;;;;;;16.43;6.37;;;1.90;99.90;;;2.41;84.63;101494.88;5049768;28;20212;-77
2021/01/11 06:41:33;;;;;;;16.17;6.20;;;1.90;99.90;;;2.40;84.38;101494.00;5066976;28;20195;-77
2021/01/11 06:44:05;;;;;;;16.30;6.83;;;1.90;99.90;;;2.39;84.52;101494.84;5063301;28;20208;-76
2021/01/11 06:46:45;;;;;;;17.67;7.30;;;1.90;99.90;;;2.41;84.53;101493.16;5067283;28;20223;-77
2021/01/11 06:49:27;;;;;;;20.23;7.40;;;1.90;99.90;;;2.36;84.25;101484.50;5064529;28;20639;-75
2021/01/11 06:52:06;;;;;;;21.17;7.80;;;1.90;99.90;;;2.34;84.25;101491.38;5066469;28;20200;-76
2021/01/11 06:54:43;;;;;;;20.40;7.27;;;1.90;99.90;;;2.36;84.47;101488.81;5065675;28;20222;-77
2021/01/11 06:57:13;;;;;;;18.97;7.70;;;1.90;99.90;;;2.40;84.25;101480.22;5065514;28;20206;-76
2021/01/11 06:59:41;;;;;;;21.80;8.17;;;1.90;99.90;;;2.39;84.12;101487.09;5061944;28;20700;-76
2021/01/11 07:02:25;;;;;;;20.53;8.40;;;1.80;99.90;;;2.41;83.89;101487.97;5066877;28;20300;-77
2021/01/11 07:04:53;;;;;;;17.73;6.97;;;1.90;99.90;;;2.41;83.88;101489.72;5061264;28;20184;-76
2021/01/11 07:07:23;;;;;;;16.67;6.50;;;1.90;99.90;;;2.41;83.77;101487.97;5068069;28;20200;-78
2021/01/11 07:09:57;;;;;;;20.83;7.23;;;1.90;99.90;;;2.39;83.81;101481.09;5066199;28;20219;-80
2021/01/11 07:12:25;;;;;;;18.80;7.03;;;1.80;99.90;;;2.34;83.67;101488.78;5043489;28;20431;-77
2021/01/11 07:15:01;;;;;;;19.07;7.00;;;1.80;99.90;;;2.33;83.80;101479.31;5065699;28;20183;-78
2021/01/11 07:17:39;;;;;;;18.47;6.87;;;1.80;99.90;;;2.36;83.61;101488.81;5065713;28;20735;-77
2021/01/11 07:20:09;;;;;;;19.80;6.93;;;1.80;99.90;;;2.36;83.54;101473.34;5064894;28;20193;-77
2021/01/11 07:22:39;;;;;;;18.30;7.20;;;1.80;99.90;;;2.34;83.42;101475.88;5064881;28;20208;-78
2021/01/11 07:25:19;;;;;;;20.27;7.67;;;1.80;99.90;;;2.35;83.41;101476.75;5063569;28;20193;-78
2021/01/11 07:27:46;;;;;;;19.97;7.20;;;1.80;99.90;;;2.39;83.77;101474.19;5045885;28;20237;-78
2021/01/11 07:30:13;;;;;;;19.97;7.50;;;1.80;99.90;;;2.42;83.64;101470.78;5063311;28;20204;-78
2021/01/11 07:32:40;;;;;;;18.97;7.13;;;1.80;99.90;;;2.43;83.54;101464.75;5064833;28;20216;-77
2021/01/11 07:35:08;;;;;;;19.07;7.27;;;1.90;99.90;;;2.40;83.45;101468.19;5064714;28;20197;-77
2021/01/11 07:37:37;;;;;;;26.17;7.47;;;1.90;99.90;;;2.41;83.54;101462.16;5069883;28;20195;-78
2021/01/11 07:40:08;;;;;;;19.60;7.80;;;1.90;99.90;;;2.40;83.25;101475.06;5063633;28;20337;-77
2021/01/11 07:42:36;;;;;;;21.80;6.97;;;1.90;99.90;;;2.34;83.44;101468.13;5039373;28;20236;-74
2021/01/11 07:45:08;;;;;;;21.83;7.67;;;1.80;99.90;;;2.35;83.26;101474.16;5068648;28;20207;-76
2021/01/11 07:47:36;;;;;;;21.70;6.97;;;1.80;99.90;;;2.34;83.42;101470.72;5053177;28;20219;-77
2021/01/11 07:50:05;;;;;;;19.80;7.60;;;1.80;99.90;;;2.32;83.16;101463.81;5045050;28;20207;-75
2021/01/11 07:52:31;;;;;;;18.60;7.40;;;1.80;99.90;;;2.33;83.25;101455.22;5067359;28;20760;-78
2021/01/11 07:54:59;;;;;;;20.57;7.80;;;1.90;99.90;;;2.36;83.31;101468.16;5068683;28;20219;-74
2021/01/11 07:57:28;;;;;;;16.43;6.87;;;1.90;99.90;;;2.35;83.19;101459.56;5052209;28;20188;-78
2021/01/11 08:00:09;;;;;;;20.17;6.90;;;1.90;99.90;;;2.34;83.02;101464.72;5044386;28;20216;-77
2021/01/11 08:02:45;;;;;;;18.90;6.90;;;1.90;99.90;;;2.31;83.16;101467.28;5064761;28;20223;-77
2021/01/11 08:05:20;;;;;;;20.80;7.17;;;1.80;99.90;;;2.32;83.15;101475.03;5043052;28;20195;-77
2021/01/11 08:07:54;;;;;;;17.40;6.83;;;1.90;99.90;;;2.38;83.30;101469.91;5068520;28;20192;-77
2021/01/11 08:10:23;;;;;;;17.90;6.80;;;1.90;99.90;;;2.46;83.24;101468.22;5063804;28;20389;-77
2021/01/11 08:12:50;;;;;;;19.20;7.33;;;2.00;99.90;;;2.52;83.30;101464.84;5065838;28;20287;-76
2021/01/11 08:15:20;;;;;;;18.30;7.40;;;2.00;99.90;;;2.52;82.69;101473.47;5069181;28;20185;-77
2021/01/11 08:17:47;;;;;;;21.77;8.30;;;2.00;99.90;;;2.54;82.47;101469.13;5069961;28;20194;-77
2021/01/11 08:20:24;;;;;;;22.23;8.47;;;2.00;99.90;;;2.57;82.59;101476.06;5065233;28;20671;-76
2021/01/11 08:22:51;;;;;;;18.07;6.80;;;2.10;99.90;;;2.59;82.64;101474.38;5066860;28;20261;-77
2021/01/11 08:25:18;;;;;;;18.47;6.93;;;2.10;99.90;;;2.58;82.65;101468.31;5067337;28;20592;-77
2021/01/11 08:27:49;;;;;;;15.70;6.40;;;2.10;99.90;;;2.58;82.55;101469.19;5054306;28;20216;-75
2021/01/11 08:30:23;;;;;;;18.40;6.60;;;2.10;99.90;;;2.58;82.45;101469.19;5049762;28;20204;-77
2021/01/11 08:32:51;;;;;;;19.73;7.03;;;2.10;99.90;;;2.58;82.58;101476.06;5053239;28;20223;-76
2021/01/11 08:35:20;;;;;;;19.80;6.93;;;2.20;99.90;;;2.61;82.57;101467.50;5067358;28;20284;-77
2021/01/11 08:37:47;;;;;;;19.83;7.00;;;2.10;99.90;;;2.65;82.51;101468.38;5073902;28;20204;-75
2021/01/11 08:40:19;;;;;;;18.03;6.77;;;2.20;99.90;;;2.68;82.52;101476.16;5055897;28;20666;-77
2021/01/11 08:42:47;;;;;;;18.60;6.40;;;2.20;99.90;;;2.74;82.33;101468.41;5066212;28;20246;-76
2021/01/11 08:45:36;;;;;;;19.73;6.67;;;2.30;99.90;;;2.77;82.01;101471.88;5063462;28;20192;-76
2021/01/11 08:48:05;;;;;;;16.90;5.67;;;2.30;99.90;;;2.77;81.74;101469.31;5063599;28;20242;-75
2021/01/11 08:50:34;;;;;;;18.13;5.77;;;2.30;99.90;;;2.75;81.89;101473.59;5055951;28;20192;-75
2021/01/11 08:53:20;;;;;;;15.40;6.17;;;2.30;99.90;;;2.75;81.66;101467.59;5055241;28;20306;-76
2021/01/11 08:55:55;;;;;;;16.53;6.03;;;2.30;99.90;;;2.75;82.27;101460.69;5042401;28;20189;-77
2021/01/11 08:58:22;;;;;;;17.10;6.73;;;2.30;99.90;;;2.79;82.16;101471.91;5046997;28;20219;-77
2021/01/11 09:00:49;;;;;;;17.80;6.50;;;2.30;99.90;;;2.82;82.19;101469.31;5063942;28;20192;-78
2021/01/11 09:03:16;;;;;;;17.07;5.87;;;2.30;99.90;;;2.84;82.33;101465.03;5063306;28;20220;-75
2021/01/11 09:05:42;;;;;;;17.58;7.38;;;2.30;99.90;;;2.88;82.45;101461.63;5063184;28;20188;-76
2021/01/11 09:08:17;;;;;;;18.63;7.47;;;2.40;99.90;;;2.92;82.33;101468.53;5058220;28;20831;-76
2021/01/11 09:10:45;;;;;;;17.53;6.63;;;2.40;99.90;;;2.89;82.06;101473.69;5058602;28;20564;-76
2021/01/11 09:13:19;;;;;;;24.77;6.90;;;2.40;99.90;;;2.88;82.46;101472.81;5065845;28;20216;-75
2021/01/11 09:15:46;;;;;;;17.90;6.20;;;2.40;99.90;;;2.89;81.97;101469.38;5050992;28;20599;-77
2021/01/11 09:18:14;;;;;;;18.43;6.50;;;2.40;99.90;;;2.92;82.11;101468.53;5047940;28;20227;-78
2021/01/11 09:20:44;;;;;;;15.70;6.93;;;2.40;99.90;;;2.94;81.91;101466.81;5043602;28;20223;-76
2021/01/11 09:23:14;;;;;;;17.40;6.80;;;2.40;99.90;;;2.98;81.81;101468.56;5045842;28;20216;-77
2021/01/11 09:25:40;;;;;;;15.70;5.87;;;2.50;99.90;;;2.98;81.95;101472.00;5068942;28;20185;-77
2021/01/11 09:28:09;;;;;;;15.63;6.07;;;2.50;99.90;;;3.00;81.54;101466.88;5064900;28;20200;-75
2021/01/11 09:30:36;;;;;;;15.03;6.30;;;2.50;99.90;;;3.05;81.68;101470.34;5059131;28;20730;-77
2021/01/11 09:33:05;;;;;;;18.85;7.65;;;2.50;99.90;;;3.09;81.44;101461.72;5065900;28;20226;-76
2021/01/11 09:35:32;;;;;;;15.57;6.40;;;2.60;99.90;;;3.13;81.22;101471.25;5061324;28;20291;-79
2021/01/11 09:37:58;;;;;;;16.57;6.13;;;2.60;99.90;;;3.16;80.95;101463.50;5051975;28;20204;-77
2021/01/11 09:40:25;;;;;;;17.15;6.20;;;2.70;99.90;;;3.19;80.68;101459.19;5053461;28;20204;-77
2021/01/11 09:42:51;;;;;;;14.93;5.70;;;2.70;99.90;;;3.21;80.61;101465.25;5049515;28;20212;-77
2021/01/11 09:45:19;;;;;;;16.42;6.47;;;2.70;99.90;;;3.23;80.32;101466.09;5057817;28;20250;-76
2021/01/11 09:47:46;;;;;;;18.63;5.97;;;2.80;99.90;;;3.24;80.09;101466.97;5064045;28;20177;-77
2021/01/11 09:50:16;;;;;;;17.10;5.63;;;2.80;99.90;;;3.20;79.98;101460.06;5044467;28;20207;-76
2021/01/11 09:52:43;;;;;;;15.15;6.10;;;2.70;99.90;;;3.19;79.95;101459.19;5063513;28;20208;-77
2021/01/11 09:55:11;;;;;;;14.57;5.78;;;2.80;99.90;;;3.22;80.21;101468.66;5070983;28;20196;-75
2021/01/11 09:57:38;;;;;;;16.80;5.30;;;2.80;99.90;;;3.25;79.64;101466.13;5070428;28;20196;-76
2021/01/11 10:00:10;;;;;;;15.32;5.35;;;2.80;99.90;;;3.25;79.46;101458.38;5051640;28;20235;-76
2021/01/11 10:02:38;;;;;;;15.57;5.80;;;2.80;99.90;;;3.23;79.37;101462.66;5068324;28;20291;-76
2021/01/11 10:05:06;;;;;;;15.45;5.53;;;2.80;99.90;;;3.25;78.94;101459.22;5049290;28;20227;-77
2021/01/11 10:07:32;;;;;;;16.38;5.95;;;2.80;99.90;;;3.27;79.12;101448.88;5065122;28;20264;-76
2021/01/11 10:09:59;;;;;;;14.10;5.67;;;2.80;99.90;;;3.30;79.07;101452.34;5063546;28;20203;-75
2021/01/11 10:12:25;;;;;;;15.38;5.28;;;2.80;99.90;;;3.29;78.94;101454.91;5069036;28;20299;-76
2021/01/11 10:14:52;;;;;;;17.53;5.60;;;2.90;99.90;;;3.27;78.88;101447.16;5070914;28;20196;-76
2021/01/11 10:17:18;;;;;;;16.05;5.20;;;2.90;99.90;;;3.31;78.74;101446.31;5072090;28;20208;-77
2021/01/11 10:19:44;;;;;;;17.63;5.93;;;2.90;99.90;;;3.36;78.41;101448.91;5073948;28;20212;-76
2021/01/11 10:22:11;;;;;;;14.57;4.97;;;3.00;99.90;;;3.41;78.23;101440.31;5068740;28;20208;-75
2021/01/11 10:24:37;;;;;;;13.07;5.07;;;3.00;99.90;;;3.53;78.35;101439.50;5067082;28;20196;-77
2021/01/11 10:27:04;;;;;;;14.90;4.90;;;3.10;99.90;;;3.49;78.24;101436.03;5061311;28;20246;-77
2021/01/11 10:29:30;;;;;;;17.60;5.80;;;3.10;99.90;;;3.44;78.04;101437.75;5065547;28;20198;-77
2021/01/11 10:31:57;;;;;;;15.30;5.30;;;3.00;99.90;;;3.43;77.85;101432.56;5062802;28;20250;-76